Terminal Aerodrome Forecast
Issued by NWS Mt. Holly, NJ

Home | Current Version | Previous Version | Text Only | Print | Product List | Glossary On
Versions: 1 2 3 4 5 6 7 8 9 10 11 12 13 14 15 16 17
000
FTUS41 KPHI 190530
TAFILG
TAF
KILG 190530Z 1906/2006 05010KT P6SM SCT250
     FM191100 09012KT P6SM SCT250
     FM192200 09014KT P6SM SCT025 BKN120
     FM200100 09016KT P6SM OVC015
     FM200500 08016G24KT 4SM -RA BR OVC008 WS020/14045KT=

USA.gov is the U.S. government's official web portal to all federal, state and local government web resources and services.